sensor_id;sensor_type;location;lat;lon;timestamp;P1;durP1;ratioP1;P2;durP2;ratioP2
82922;SDS011;72787;51.272;6.040;2023-09-19T00:00:30;4.70;;;3.44;;
82922;SDS011;72787;51.272;6.040;2023-09-19T00:02:57;5.27;;;3.79;;
82922;SDS011;72787;51.272;6.040;2023-09-19T00:05:27;5.31;;;3.78;;
82922;SDS011;72787;51.272;6.040;2023-09-19T00:07:55;5.19;;;3.68;;
82922;SDS011;72787;51.272;6.040;2023-09-19T00:10:27;5.34;;;3.81;;
82922;SDS011;72787;51.272;6.040;2023-09-19T00:12:57;5.77;;;4.18;;
82922;SDS011;72787;51.272;6.040;2023-09-19T00:15:30;5.02;;;3.67;;
82922;SDS011;72787;51.272;6.040;2023-09-19T00:18:03;4.92;;;3.55;;
82922;SDS011;72787;51.272;6.040;2023-09-19T00:20:31;5.60;;;4.01;;
82922;SDS011;72787;51.272;6.040;2023-09-19T00:23:00;5.15;;;3.75;;
82922;SDS011;72787;51.272;6.040;2023-09-19T00:25:33;4.62;;;3.42;;
82922;SDS011;72787;51.272;6.040;2023-09-19T00:28:01;4.54;;;3.37;;
82922;SDS011;72787;51.272;6.040;2023-09-19T00:30:27;4.41;;;3.27;;
82922;SDS011;72787;51.272;6.040;2023-09-19T00:32:52;4.57;;;3.30;;
82922;SDS011;72787;51.272;6.040;2023-09-19T00:35:18;4.71;;;3.45;;
82922;SDS011;72787;51.272;6.040;2023-09-19T00:37:44;4.89;;;3.56;;
82922;SDS011;72787;51.272;6.040;2023-09-19T00:40:10;4.98;;;3.62;;
82922;SDS011;72787;51.272;6.040;2023-09-19T00:42:38;5.14;;;3.81;;
82922;SDS011;72787;51.272;6.040;2023-09-19T00:45:05;4.95;;;3.57;;
82922;SDS011;72787;51.272;6.040;2023-09-19T00:47:45;5.33;;;3.79;;
82922;SDS011;72787;51.272;6.040;2023-09-19T00:50:21;4.88;;;3.53;;
82922;SDS011;72787;51.272;6.040;2023-09-19T00:52:50;4.91;;;3.60;;
82922;SDS011;72787;51.272;6.040;2023-09-19T00:55:23;4.63;;;3.48;;
82922;SDS011;72787;51.272;6.040;2023-09-19T00:57:49;4.36;;;3.30;;
82922;SDS011;72787;51.272;6.040;2023-09-19T01:00:15;4.57;;;3.35;;
82922;SDS011;72787;51.272;6.040;2023-09-19T01:02:45;5.48;;;3.92;;
82922;SDS011;72787;51.272;6.040;2023-09-19T01:05:13;5.43;;;3.90;;
82922;SDS011;72787;51.272;6.040;2023-09-19T01:07:39;5.37;;;3.84;;
82922;SDS011;72787;51.272;6.040;2023-09-19T01:10:11;5.38;;;3.88;;
82922;SDS011;72787;51.272;6.040;2023-09-19T01:15:32;6.31;;;4.41;;
82922;SDS011;72787;51.272;6.040;2023-09-19T01:21:05;5.17;;;3.75;;
82922;SDS011;72787;51.272;6.040;2023-09-19T01:29:45;4.53;;;3.23;;
82922;SDS011;72787;51.272;6.040;2023-09-19T01:32:15;5.08;;;3.64;;
82922;SDS011;72787;51.272;6.040;2023-09-19T01:34:54;4.95;;;3.51;;
82922;SDS011;72787;51.272;6.040;2023-09-19T01:37:29;5.64;;;4.05;;
82922;SDS011;72787;51.272;6.040;2023-09-19T01:39:58;5.21;;;3.67;;
82922;SDS011;72787;51.272;6.040;2023-09-19T01:42:48;5.56;;;3.91;;
82922;SDS011;72787;51.272;6.040;2023-09-19T01:45:35;5.16;;;3.68;;
82922;SDS011;72787;51.272;6.040;2023-09-19T01:50:52;5.11;;;3.67;;
82922;SDS011;72787;51.272;6.040;2023-09-19T01:53:30;5.22;;;3.71;;
82922;SDS011;72787;51.272;6.040;2023-09-19T01:56:01;5.17;;;3.66;;
82922;SDS011;72787;51.272;6.040;2023-09-19T01:58:34;4.85;;;3.43;;
82922;SDS011;72787;51.272;6.040;2023-09-19T02:01:08;4.50;;;3.24;;
82922;SDS011;72787;51.272;6.040;2023-09-19T02:03:40;5.02;;;3.60;;
82922;SDS011;72787;51.272;6.040;2023-09-19T02:06:07;4.89;;;3.52;;
82922;SDS011;72787;51.272;6.040;2023-09-19T02:08:36;5.52;;;3.95;;
82922;SDS011;72787;51.272;6.040;2023-09-19T02:11:02;5.40;;;3.90;;
82922;SDS011;72787;51.272;6.040;2023-09-19T02:13:28;5.38;;;3.86;;
82922;SDS011;72787;51.272;6.040;2023-09-19T02:15:57;5.28;;;3.81;;
82922;SDS011;72787;51.272;6.040;2023-09-19T02:18:23;5.16;;;3.70;;
82922;SDS011;72787;51.272;6.040;2023-09-19T02:20:48;4.77;;;3.41;;
82922;SDS011;72787;51.272;6.040;2023-09-19T02:23:16;4.72;;;3.42;;
82922;SDS011;72787;51.272;6.040;2023-09-19T02:25:42;4.57;;;3.29;;
82922;SDS011;72787;51.272;6.040;2023-09-19T02:28:08;4.94;;;3.51;;
82922;SDS011;72787;51.272;6.040;2023-09-19T02:30:34;4.83;;;3.44;;
82922;SDS011;72787;51.272;6.040;2023-09-19T02:33:01;4.64;;;3.34;;
82922;SDS011;72787;51.272;6.040;2023-09-19T02:35:27;5.16;;;3.71;;
82922;SDS011;72787;51.272;6.040;2023-09-19T02:37:53;4.71;;;3.38;;
82922;SDS011;72787;51.272;6.040;2023-09-19T02:40:19;5.05;;;3.61;;
82922;SDS011;72787;51.272;6.040;2023-09-19T02:42:46;4.53;;;3.29;;
82922;SDS011;72787;51.272;6.040;2023-09-19T02:45:14;4.42;;;3.29;;
82922;SDS011;72787;51.272;6.040;2023-09-19T02:47:40;4.55;;;3.35;;
82922;SDS011;72787;51.272;6.040;2023-09-19T02:50:06;4.58;;;3.37;;
82922;SDS011;72787;51.272;6.040;2023-09-19T02:52:33;4.28;;;3.16;;
82922;SDS011;72787;51.272;6.040;2023-09-19T02:54:59;3.91;;;2.90;;
82922;SDS011;72787;51.272;6.040;2023-09-19T02:57:26;4.57;;;3.41;;
82922;SDS011;72787;51.272;6.040;2023-09-19T02:59:53;4.83;;;3.52;;
82922;SDS011;72787;51.272;6.040;2023-09-19T03:02:18;4.43;;;3.29;;
82922;SDS011;72787;51.272;6.040;2023-09-19T03:04:44;4.15;;;3.09;;
82922;SDS011;72787;51.272;6.040;2023-09-19T03:07:10;4.76;;;3.50;;
82922;SDS011;72787;51.272;6.040;2023-09-19T03:09:36;4.96;;;3.60;;
82922;SDS011;72787;51.272;6.040;2023-09-19T03:12:02;4.98;;;3.59;;
82922;SDS011;72787;51.272;6.040;2023-09-19T03:14:30;4.81;;;3.49;;
82922;SDS011;72787;51.272;6.040;2023-09-19T03:17:01;4.40;;;3.19;;
82922;SDS011;72787;51.272;6.040;2023-09-19T03:19:30;4.50;;;3.22;;
82922;SDS011;72787;51.272;6.040;2023-09-19T03:21:59;4.79;;;3.46;;
82922;SDS011;72787;51.272;6.040;2023-09-19T03:24:25;4.81;;;3.48;;
82922;SDS011;72787;51.272;6.040;2023-09-19T03:26:52;4.96;;;3.50;;
82922;SDS011;72787;51.272;6.040;2023-09-19T03:29:18;5.28;;;3.69;;
82922;SDS011;72787;51.272;6.040;2023-09-19T03:31:45;4.99;;;3.56;;
82922;SDS011;72787;51.272;6.040;2023-09-19T03:34:11;5.20;;;3.69;;
82922;SDS011;72787;51.272;6.040;2023-09-19T03:36:37;5.12;;;3.64;;
82922;SDS011;72787;51.272;6.040;2023-09-19T03:39:03;5.06;;;3.57;;
82922;SDS011;72787;51.272;6.040;2023-09-19T03:41:31;4.95;;;3.51;;
82922;SDS011;72787;51.272;6.040;2023-09-19T03:43:59;5.60;;;3.95;;
82922;SDS011;72787;51.272;6.040;2023-09-19T03:46:25;4.73;;;3.46;;
82922;SDS011;72787;51.272;6.040;2023-09-19T03:48:50;4.45;;;3.28;;
82922;SDS011;72787;51.272;6.040;2023-09-19T03:51:16;4.66;;;3.39;;
82922;SDS011;72787;51.272;6.040;2023-09-19T03:53:42;5.27;;;3.83;;
82922;SDS011;72787;51.272;6.040;2023-09-19T03:56:08;5.47;;;4.02;;
82922;SDS011;72787;51.272;6.040;2023-09-19T03:58:34;5.01;;;3.71;;
82922;SDS011;72787;51.272;6.040;2023-09-19T04:01:04;5.39;;;3.96;;
82922;SDS011;72787;51.272;6.040;2023-09-19T04:03:34;4.79;;;3.60;;
82922;SDS011;72787;51.272;6.040;2023-09-19T04:06:12;5.39;;;4.00;;
82922;SDS011;72787;51.272;6.040;2023-09-19T04:08:38;5.13;;;3.84;;
82922;SDS011;72787;51.272;6.040;2023-09-19T04:11:04;4.82;;;3.65;;
82922;SDS011;72787;51.272;6.040;2023-09-19T04:13:30;4.78;;;3.60;;
82922;SDS011;72787;51.272;6.040;2023-09-19T04:15:55;5.42;;;4.02;;
82922;SDS011;72787;51.272;6.040;2023-09-19T04:18:21;4.78;;;3.55;;
82922;SDS011;72787;51.272;6.040;2023-09-19T04:20:49;4.93;;;3.71;;
82922;SDS011;72787;51.272;6.040;2023-09-19T04:23:16;4.97;;;3.71;;
82922;SDS011;72787;51.272;6.040;2023-09-19T04:25:42;4.74;;;3.60;;
82922;SDS011;72787;51.272;6.040;2023-09-19T04:28:09;5.25;;;3.86;;
82922;SDS011;72787;51.272;6.040;2023-09-19T04:30:38;5.32;;;3.87;;
82922;SDS011;72787;51.272;6.040;2023-09-19T04:33:06;4.89;;;3.58;;
82922;SDS011;72787;51.272;6.040;2023-09-19T04:35:33;5.20;;;3.77;;
82922;SDS011;72787;51.272;6.040;2023-09-19T04:38:00;5.12;;;3.72;;
82922;SDS011;72787;51.272;6.040;2023-09-19T04:40:26;5.23;;;3.79;;
82922;SDS011;72787;51.272;6.040;2023-09-19T04:42:55;4.89;;;3.54;;
82922;SDS011;72787;51.272;6.040;2023-09-19T04:45:22;5.45;;;3.94;;
82922;SDS011;72787;51.272;6.040;2023-09-19T04:47:52;5.27;;;3.89;;
82922;SDS011;72787;51.272;6.040;2023-09-19T04:50:19;5.29;;;3.83;;
82922;SDS011;72787;51.272;6.040;2023-09-19T04:52:49;5.23;;;3.78;;
82922;SDS011;72787;51.272;6.040;2023-09-19T04:55:16;5.56;;;3.95;;
82922;SDS011;72787;51.272;6.040;2023-09-19T04:57:47;5.25;;;3.81;;
82922;SDS011;72787;51.272;6.040;2023-09-19T05:00:15;5.18;;;3.78;;
82922;SDS011;72787;51.272;6.040;2023-09-19T05:02:45;5.50;;;4.00;;
82922;SDS011;72787;51.272;6.040;2023-09-19T05:05:14;5.80;;;4.22;;
82922;SDS011;72787;51.272;6.040;2023-09-19T05:07:42;5.29;;;3.87;;
82922;SDS011;72787;51.272;6.040;2023-09-19T05:10:09;5.46;;;3.91;;
82922;SDS011;72787;51.272;6.040;2023-09-19T05:12:38;5.23;;;3.81;;
82922;SDS011;72787;51.272;6.040;2023-09-19T05:15:05;5.12;;;3.71;;
82922;SDS011;72787;51.272;6.040;2023-09-19T05:17:35;5.77;;;4.16;;
82922;SDS011;72787;51.272;6.040;2023-09-19T05:20:02;5.55;;;4.03;;
82922;SDS011;72787;51.272;6.040;2023-09-19T05:22:43;4.80;;;3.55;;
82922;SDS011;72787;51.272;6.040;2023-09-19T05:25:11;4.75;;;3.53;;
82922;SDS011;72787;51.272;6.040;2023-09-19T05:27:42;5.06;;;3.71;;
82922;SDS011;72787;51.272;6.040;2023-09-19T05:30:09;5.22;;;3.79;;
82922;SDS011;72787;51.272;6.040;2023-09-19T05:32:35;4.86;;;3.56;;
82922;SDS011;72787;51.272;6.040;2023-09-19T05:35:00;5.25;;;3.77;;
82922;SDS011;72787;51.272;6.040;2023-09-19T05:37:26;5.34;;;3.84;;
82922;SDS011;72787;51.272;6.040;2023-09-19T05:39:52;5.32;;;3.80;;
82922;SDS011;72787;51.272;6.040;2023-09-19T05:42:19;5.50;;;3.89;;
82922;SDS011;72787;51.272;6.040;2023-09-19T05:44:44;5.12;;;3.71;;
82922;SDS011;72787;51.272;6.040;2023-09-19T05:47:10;5.14;;;3.64;;
82922;SDS011;72787;51.272;6.040;2023-09-19T05:49:36;5.21;;;3.71;;
82922;SDS011;72787;51.272;6.040;2023-09-19T05:52:05;5.30;;;3.85;;
82922;SDS011;72787;51.272;6.040;2023-09-19T05:54:32;5.26;;;3.85;;
82922;SDS011;72787;51.272;6.040;2023-09-19T05:57:00;5.27;;;3.84;;
82922;SDS011;72787;51.272;6.040;2023-09-19T05:59:27;5.37;;;3.86;;
82922;SDS011;72787;51.272;6.040;2023-09-19T06:01:53;5.39;;;3.84;;
82922;SDS011;72787;51.272;6.040;2023-09-19T06:04:18;5.10;;;3.68;;
82922;SDS011;72787;51.272;6.040;2023-09-19T06:06:44;5.20;;;3.80;;
82922;SDS011;72787;51.272;6.040;2023-09-19T06:09:10;4.80;;;3.56;;
82922;SDS011;72787;51.272;6.040;2023-09-19T06:11:36;4.97;;;3.70;;
82922;SDS011;72787;51.272;6.040;2023-09-19T06:14:03;5.57;;;4.05;;
82922;SDS011;72787;51.272;6.040;2023-09-19T06:16:30;5.20;;;3.75;;
82922;SDS011;72787;51.272;6.040;2023-09-19T06:18:57;4.91;;;3.55;;
82922;SDS011;72787;51.272;6.040;2023-09-19T06:21:25;4.92;;;3.58;;
82922;SDS011;72787;51.272;6.040;2023-09-19T06:23:53;5.53;;;3.97;;
82922;SDS011;72787;51.272;6.040;2023-09-19T06:26:19;5.27;;;3.74;;
82922;SDS011;72787;51.272;6.040;2023-09-19T06:28:44;5.29;;;3.74;;
82922;SDS011;72787;51.272;6.040;2023-09-19T06:31:12;5.71;;;4.08;;
82922;SDS011;72787;51.272;6.040;2023-09-19T06:33:38;5.84;;;4.07;;
82922;SDS011;72787;51.272;6.040;2023-09-19T06:36:05;5.87;;;4.10;;
82922;SDS011;72787;51.272;6.040;2023-09-19T06:38:31;5.28;;;3.78;;
82922;SDS011;72787;51.272;6.040;2023-09-19T06:40:59;5.08;;;3.64;;
82922;SDS011;72787;51.272;6.040;2023-09-19T06:43:34;4.74;;;3.41;;
82922;SDS011;72787;51.272;6.040;2023-09-19T06:46:01;4.84;;;3.48;;
82922;SDS011;72787;51.272;6.040;2023-09-19T06:48:27;5.47;;;3.95;;
82922;SDS011;72787;51.272;6.040;2023-09-19T06:50:55;4.34;;;3.15;;
82922;SDS011;72787;51.272;6.040;2023-09-19T06:53:23;4.66;;;3.38;;
82922;SDS011;72787;51.272;6.040;2023-09-19T06:55:50;5.06;;;3.62;;
82922;SDS011;72787;51.272;6.040;2023-09-19T06:58:16;5.15;;;3.64;;
82922;SDS011;72787;51.272;6.040;2023-09-19T07:00:42;5.78;;;4.03;;
82922;SDS011;72787;51.272;6.040;2023-09-19T07:03:08;5.43;;;3.83;;
82922;SDS011;72787;51.272;6.040;2023-09-19T07:05:37;5.35;;;3.77;;
82922;SDS011;72787;51.272;6.040;2023-09-19T07:08:04;5.52;;;3.89;;
82922;SDS011;72787;51.272;6.040;2023-09-19T07:10:32;5.49;;;3.84;;
82922;SDS011;72787;51.272;6.040;2023-09-19T07:12:59;5.81;;;4.04;;
82922;SDS011;72787;51.272;6.040;2023-09-19T07:15:27;5.54;;;3.88;;
82922;SDS011;72787;51.272;6.040;2023-09-19T07:17:54;5.30;;;3.71;;
82922;SDS011;72787;51.272;6.040;2023-09-19T07:20:21;5.91;;;4.14;;
82922;SDS011;72787;51.272;6.040;2023-09-19T07:22:51;5.59;;;3.89;;
82922;SDS011;72787;51.272;6.040;2023-09-19T07:25:16;6.05;;;4.19;;
82922;SDS011;72787;51.272;6.040;2023-09-19T07:27:43;5.89;;;4.11;;
82922;SDS011;72787;51.272;6.040;2023-09-19T07:30:09;5.70;;;4.00;;
82922;SDS011;72787;51.272;6.040;2023-09-19T07:32:37;5.50;;;3.86;;
82922;SDS011;72787;51.272;6.040;2023-09-19T07:35:03;5.15;;;3.65;;
82922;SDS011;72787;51.272;6.040;2023-09-19T07:37:33;5.84;;;4.09;;
82922;SDS011;72787;51.272;6.040;2023-09-19T07:40:00;5.55;;;3.92;;
82922;SDS011;72787;51.272;6.040;2023-09-19T07:42:33;5.38;;;3.80;;
82922;SDS011;72787;51.272;6.040;2023-09-19T07:45:02;5.78;;;4.09;;
82922;SDS011;72787;51.272;6.040;2023-09-19T07:47:29;5.48;;;3.80;;
82922;SDS011;72787;51.272;6.040;2023-09-19T07:49:55;5.77;;;4.04;;
82922;SDS011;72787;51.272;6.040;2023-09-19T07:52:21;5.24;;;3.66;;
82922;SDS011;72787;51.272;6.040;2023-09-19T07:54:48;5.68;;;3.97;;
82922;SDS011;72787;51.272;6.040;2023-09-19T07:57:14;5.13;;;3.69;;
82922;SDS011;72787;51.272;6.040;2023-09-19T07:59:41;5.04;;;3.65;;
82922;SDS011;72787;51.272;6.040;2023-09-19T08:02:08;5.16;;;3.69;;
82922;SDS011;72787;51.272;6.040;2023-09-19T08:04:42;5.39;;;3.82;;
82922;SDS011;72787;51.272;6.040;2023-09-19T08:07:08;5.44;;;3.85;;
82922;SDS011;72787;51.272;6.040;2023-09-19T08:09:34;4.99;;;3.62;;
82922;SDS011;72787;51.272;6.040;2023-09-19T08:12:00;5.38;;;3.85;;
82922;SDS011;72787;51.272;6.040;2023-09-19T08:14:29;5.65;;;4.08;;
82922;SDS011;72787;51.272;6.040;2023-09-19T08:16:58;5.28;;;3.86;;
82922;SDS011;72787;51.272;6.040;2023-09-19T08:19:24;4.92;;;3.60;;
82922;SDS011;72787;51.272;6.040;2023-09-19T08:21:55;5.08;;;3.69;;
82922;SDS011;72787;51.272;6.040;2023-09-19T08:24:27;4.88;;;3.49;;
82922;SDS011;72787;51.272;6.040;2023-09-19T08:26:54;5.02;;;3.57;;
82922;SDS011;72787;51.272;6.040;2023-09-19T08:29:24;5.62;;;3.93;;
82922;SDS011;72787;51.272;6.040;2023-09-19T08:31:56;5.54;;;3.88;;
82922;SDS011;72787;51.272;6.040;2023-09-19T08:34:25;5.10;;;3.60;;
82922;SDS011;72787;51.272;6.040;2023-09-19T08:36:52;4.70;;;3.43;;
82922;SDS011;72787;51.272;6.040;2023-09-19T08:39:22;4.95;;;3.61;;
82922;SDS011;72787;51.272;6.040;2023-09-19T08:41:49;5.74;;;4.04;;
82922;SDS011;72787;51.272;6.040;2023-09-19T08:44:15;5.77;;;4.00;;
82922;SDS011;72787;51.272;6.040;2023-09-19T08:46:41;5.90;;;4.11;;
82922;SDS011;72787;51.272;6.040;2023-09-19T08:49:17;5.46;;;3.83;;
82922;SDS011;72787;51.272;6.040;2023-09-19T08:51:53;4.84;;;3.45;;
82922;SDS011;72787;51.272;6.040;2023-09-19T08:54:33;5.08;;;3.68;;
82922;SDS011;72787;51.272;6.040;2023-09-19T08:57:06;5.34;;;3.85;;
82922;SDS011;72787;51.272;6.040;2023-09-19T08:59:47;4.50;;;3.31;;
82922;SDS011;72787;51.272;6.040;2023-09-19T09:02:17;4.44;;;3.26;;
82922;SDS011;72787;51.272;6.040;2023-09-19T09:04:45;5.45;;;3.93;;
82922;SDS011;72787;51.272;6.040;2023-09-19T09:07:13;5.01;;;3.62;;
82922;SDS011;72787;51.272;6.040;2023-09-19T09:09:40;4.60;;;3.34;;
82922;SDS011;72787;51.272;6.040;2023-09-19T09:12:12;4.92;;;3.54;;
82922;SDS011;72787;51.272;6.040;2023-09-19T09:14:43;4.66;;;3.38;;
82922;SDS011;72787;51.272;6.040;2023-09-19T09:17:14;4.56;;;3.34;;
82922;SDS011;72787;51.272;6.040;2023-09-19T09:19:40;4.59;;;3.36;;
82922;SDS011;72787;51.272;6.040;2023-09-19T09:22:08;4.28;;;3.20;;
82922;SDS011;72787;51.272;6.040;2023-09-19T09:24:35;4.21;;;3.15;;
82922;SDS011;72787;51.272;6.040;2023-09-19T09:27:04;5.26;;;3.85;;
82922;SDS011;72787;51.272;6.040;2023-09-19T09:32:21;5.31;;;3.82;;
82922;SDS011;72787;51.272;6.040;2023-09-19T09:34:55;5.20;;;3.77;;
82922;SDS011;72787;51.272;6.040;2023-09-19T09:37:24;5.02;;;3.61;;
82922;SDS011;72787;51.272;6.040;2023-09-19T09:39:52;4.97;;;3.60;;
82922;SDS011;72787;51.272;6.040;2023-09-19T09:42:44;5.17;;;3.75;;
82922;SDS011;72787;51.272;6.040;2023-09-19T09:48:07;4.95;;;3.60;;
82922;SDS011;72787;51.272;6.040;2023-09-19T09:50:46;4.78;;;3.52;;
82922;SDS011;72787;51.272;6.040;2023-09-19T09:53:23;4.76;;;3.50;;
82922;SDS011;72787;51.272;6.040;2023-09-19T09:56:07;5.20;;;3.72;;
82922;SDS011;72787;51.272;6.040;2023-09-19T09:58:49;5.34;;;3.84;;
82922;SDS011;72787;51.272;6.040;2023-09-19T10:01:21;5.07;;;3.66;;
82922;SDS011;72787;51.272;6.040;2023-09-19T10:03:57;5.30;;;3.78;;
82922;SDS011;72787;51.272;6.040;2023-09-19T10:06:23;4.64;;;3.33;;
82922;SDS011;72787;51.272;6.040;2023-09-19T10:09:06;4.59;;;3.42;;
82922;SDS011;72787;51.272;6.040;2023-09-19T10:11:38;3.93;;;3.06;;
82922;SDS011;72787;51.272;6.040;2023-09-19T10:14:09;3.89;;;3.03;;
82922;SDS011;72787;51.272;6.040;2023-09-19T10:16:36;3.79;;;2.93;;
82922;SDS011;72787;51.272;6.040;2023-09-19T10:19:09;3.75;;;2.92;;
82922;SDS011;72787;51.272;6.040;2023-09-19T10:21:41;4.30;;;3.34;;
82922;SDS011;72787;51.272;6.040;2023-09-19T10:24:08;3.61;;;2.86;;
82922;SDS011;72787;51.272;6.040;2023-09-19T10:26:35;4.05;;;3.12;;
82922;SDS011;72787;51.272;6.040;2023-09-19T10:29:01;4.28;;;3.22;;
82922;SDS011;72787;51.272;6.040;2023-09-19T10:31:32;4.33;;;3.27;;
82922;SDS011;72787;51.272;6.040;2023-09-19T10:34:02;4.36;;;3.24;;
82922;SDS011;72787;51.272;6.040;2023-09-19T10:36:32;4.83;;;3.59;;
82922;SDS011;72787;51.272;6.040;2023-09-19T10:39:01;4.39;;;3.24;;
82922;SDS011;72787;51.272;6.040;2023-09-19T10:41:32;4.60;;;3.43;;
82922;SDS011;72787;51.272;6.040;2023-09-19T10:44:03;5.24;;;3.83;;
82922;SDS011;72787;51.272;6.040;2023-09-19T10:46:33;4.72;;;3.49;;
82922;SDS011;72787;51.272;6.040;2023-09-19T10:48:59;5.06;;;3.73;;
82922;SDS011;72787;51.272;6.040;2023-09-19T10:51:29;4.70;;;3.45;;
82922;SDS011;72787;51.272;6.040;2023-09-19T10:54:08;4.59;;;3.42;;
82922;SDS011;72787;51.272;6.040;2023-09-19T10:56:42;4.26;;;3.25;;
82922;SDS011;72787;51.272;6.040;2023-09-19T10:59:13;4.12;;;3.14;;
82922;SDS011;72787;51.272;6.040;2023-09-19T11:04:34;4.09;;;3.18;;
82922;SDS011;72787;51.272;6.040;2023-09-19T11:09:44;3.70;;;2.95;;
82922;SDS011;72787;51.272;6.040;2023-09-19T11:15:06;3.99;;;3.16;;
82922;SDS011;72787;51.272;6.040;2023-09-19T11:17:34;4.31;;;3.35;;
82922;SDS011;72787;51.272;6.040;2023-09-19T11:23:23;3.93;;;3.08;;
82922;SDS011;72787;51.272;6.040;2023-09-19T11:25:43;3.66;;;2.88;;
82922;SDS011;72787;51.272;6.040;2023-09-19T11:30:50;3.74;;;2.88;;
82922;SDS011;72787;51.272;6.040;2023-09-19T11:46:24;3.85;;;3.02;;
82922;SDS011;72787;51.272;6.040;2023-09-19T11:48:51;3.56;;;2.84;;
82922;SDS011;72787;51.272;6.040;2023-09-19T11:51:18;3.72;;;2.90;;
82922;SDS011;72787;51.272;6.040;2023-09-19T11:53:45;3.47;;;2.70;;
82922;SDS011;72787;51.272;6.040;2023-09-19T11:56:15;3.51;;;2.73;;
82922;SDS011;72787;51.272;6.040;2023-09-19T11:58:43;3.49;;;2.75;;
82922;SDS011;72787;51.272;6.040;2023-09-19T12:01:13;3.74;;;2.91;;
82922;SDS011;72787;51.272;6.040;2023-09-19T12:03:42;3.38;;;2.63;;
82922;SDS011;72787;51.272;6.040;2023-09-19T12:06:16;3.21;;;2.52;;
82922;SDS011;72787;51.272;6.040;2023-09-19T12:08:43;3.49;;;2.65;;
82922;SDS011;72787;51.272;6.040;2023-09-19T12:11:12;3.59;;;2.70;;
82922;SDS011;72787;51.272;6.040;2023-09-19T12:13:44;3.72;;;2.78;;
82922;SDS011;72787;51.272;6.040;2023-09-19T12:16:12;3.52;;;2.62;;
82922;SDS011;72787;51.272;6.040;2023-09-19T12:18:43;3.14;;;2.37;;
82922;SDS011;72787;51.272;6.040;2023-09-19T12:26:39;2.76;;;2.15;;
82922;SDS011;72787;51.272;6.040;2023-09-19T12:29:13;2.56;;;1.99;;
82922;SDS011;72787;51.272;6.040;2023-09-19T12:34:27;2.85;;;2.17;;
82922;SDS011;72787;51.272;6.040;2023-09-19T12:37:14;2.65;;;2.04;;
82922;SDS011;72787;51.272;6.040;2023-09-19T12:39:48;2.71;;;2.04;;
82922;SDS011;72787;51.272;6.040;2023-09-19T12:42:17;3.11;;;2.30;;
82922;SDS011;72787;51.272;6.040;2023-09-19T12:44:46;2.68;;;1.99;;
82922;SDS011;72787;51.272;6.040;2023-09-19T12:47:17;2.96;;;2.19;;
82922;SDS011;72787;51.272;6.040;2023-09-19T12:52:47;2.73;;;2.07;;
82922;SDS011;72787;51.272;6.040;2023-09-19T12:58:30;2.26;;;1.76;;
82922;SDS011;72787;51.272;6.040;2023-09-19T13:00:38;2.16;;;1.68;;
82922;SDS011;72787;51.272;6.040;2023-09-19T13:05:48;2.56;;;1.94;;
82922;SDS011;72787;51.272;6.040;2023-09-19T13:08:27;2.28;;;1.76;;
82922;SDS011;72787;51.272;6.040;2023-09-19T13:11:08;2.17;;;1.67;;
82922;SDS011;72787;51.272;6.040;2023-09-19T13:13:50;2.32;;;1.77;;
82922;SDS011;72787;51.272;6.040;2023-09-19T13:25:14;1.79;;;1.39;;
82922;SDS011;72787;51.272;6.040;2023-09-19T13:27:46;2.01;;;1.53;;
82922;SDS011;72787;51.272;6.040;2023-09-19T13:30:20;2.24;;;1.67;;
82922;SDS011;72787;51.272;6.040;2023-09-19T13:32:48;2.33;;;1.76;;
82922;SDS011;72787;51.272;6.040;2023-09-19T13:35:14;2.03;;;1.52;;
82922;SDS011;72787;51.272;6.040;2023-09-19T13:37:41;1.92;;;1.45;;
82922;SDS011;72787;51.272;6.040;2023-09-19T13:40:09;2.07;;;1.55;;
82922;SDS011;72787;51.272;6.040;2023-09-19T13:42:37;2.05;;;1.55;;
82922;SDS011;72787;51.272;6.040;2023-09-19T13:45:03;1.68;;;1.28;;
82922;SDS011;72787;51.272;6.040;2023-09-19T13:47:30;1.98;;;1.53;;
82922;SDS011;72787;51.272;6.040;2023-09-19T13:49:58;1.68;;;1.30;;
82922;SDS011;72787;51.272;6.040;2023-09-19T13:52:24;1.70;;;1.32;;
82922;SDS011;72787;51.272;6.040;2023-09-19T13:54:53;1.76;;;1.37;;
82922;SDS011;72787;51.272;6.040;2023-09-19T13:57:25;1.79;;;1.39;;
82922;SDS011;72787;51.272;6.040;2023-09-19T13:59:54;1.67;;;1.33;;
82922;SDS011;72787;51.272;6.040;2023-09-19T14:02:21;1.43;;;1.15;;
82922;SDS011;72787;51.272;6.040;2023-09-19T14:04:51;1.47;;;1.18;;
82922;SDS011;72787;51.272;6.040;2023-09-19T14:07:17;1.67;;;1.32;;
82922;SDS011;72787;51.272;6.040;2023-09-19T14:09:45;1.56;;;1.20;;
82922;SDS011;72787;51.272;6.040;2023-09-19T14:12:11;1.82;;;1.39;;
82922;SDS011;72787;51.272;6.040;2023-09-19T14:14:37;1.55;;;1.21;;
82922;SDS011;72787;51.272;6.040;2023-09-19T14:17:03;1.60;;;1.23;;
82922;SDS011;72787;51.272;6.040;2023-09-19T14:19:30;1.61;;;1.23;;
82922;SDS011;72787;51.272;6.040;2023-09-19T14:21:56;1.86;;;1.42;;
82922;SDS011;72787;51.272;6.040;2023-09-19T14:24:22;1.82;;;1.40;;
82922;SDS011;72787;51.272;6.040;2023-09-19T14:26:49;1.51;;;1.14;;
82922;SDS011;72787;51.272;6.040;2023-09-19T14:29:16;1.98;;;1.48;;
82922;SDS011;72787;51.272;6.040;2023-09-19T14:31:42;1.80;;;1.34;;
82922;SDS011;72787;51.272;6.040;2023-09-19T14:34:08;1.80;;;1.33;;
82922;SDS011;72787;51.272;6.040;2023-09-19T14:36:38;1.75;;;1.31;;
82922;SDS011;72787;51.272;6.040;2023-09-19T14:39:06;2.01;;;1.52;;
82922;SDS011;72787;51.272;6.040;2023-09-19T14:41:33;1.85;;;1.43;;
82922;SDS011;72787;51.272;6.040;2023-09-19T14:43:59;1.64;;;1.27;;
82922;SDS011;72787;51.272;6.040;2023-09-19T14:46:25;1.94;;;1.51;;
82922;SDS011;72787;51.272;6.040;2023-09-19T14:48:51;1.67;;;1.29;;
82922;SDS011;72787;51.272;6.040;2023-09-19T14:51:17;1.59;;;1.21;;
82922;SDS011;72787;51.272;6.040;2023-09-19T14:53:44;1.88;;;1.43;;
82922;SDS011;72787;51.272;6.040;2023-09-19T14:56:11;1.73;;;1.32;;
82922;SDS011;72787;51.272;6.040;2023-09-19T14:58:38;1.83;;;1.40;;
82922;SDS011;72787;51.272;6.040;2023-09-19T15:01:08;1.69;;;1.31;;
82922;SDS011;72787;51.272;6.040;2023-09-19T15:03:38;1.89;;;1.47;;
82922;SDS011;72787;51.272;6.040;2023-09-19T15:06:07;1.57;;;1.21;;
82922;SDS011;72787;51.272;6.040;2023-09-19T15:08:45;1.80;;;1.37;;
82922;SDS011;72787;51.272;6.040;2023-09-19T15:11:18;1.71;;;1.32;;
82922;SDS011;72787;51.272;6.040;2023-09-19T15:13:46;1.95;;;1.50;;
82922;SDS011;72787;51.272;6.040;2023-09-19T15:16:12;1.70;;;1.31;;
82922;SDS011;72787;51.272;6.040;2023-09-19T15:18:40;1.82;;;1.40;;
82922;SDS011;72787;51.272;6.040;2023-09-19T15:21:07;1.81;;;1.40;;
82922;SDS011;72787;51.272;6.040;2023-09-19T15:23:36;1.62;;;1.26;;
82922;SDS011;72787;51.272;6.040;2023-09-19T15:26:03;1.44;;;1.14;;
82922;SDS011;72787;51.272;6.040;2023-09-19T15:28:30;1.78;;;1.41;;
82922;SDS011;72787;51.272;6.040;2023-09-19T15:31:07;1.49;;;1.18;;
82922;SDS011;72787;51.272;6.040;2023-09-19T15:33:34;1.53;;;1.23;;
82922;SDS011;72787;51.272;6.040;2023-09-19T15:41:22;1.90;;;1.49;;
82922;SDS011;72787;51.272;6.040;2023-09-19T15:43:49;1.84;;;1.43;;
82922;SDS011;72787;51.272;6.040;2023-09-19T15:46:15;1.52;;;1.18;;
82922;SDS011;72787;51.272;6.040;2023-09-19T15:48:41;1.71;;;1.34;;
82922;SDS011;72787;51.272;6.040;2023-09-19T15:51:08;1.57;;;1.23;;
82922;SDS011;72787;51.272;6.040;2023-09-19T15:56:12;1.68;;;1.34;;
82922;SDS011;72787;51.272;6.040;2023-09-19T15:58:39;1.50;;;1.22;;
82922;SDS011;72787;51.272;6.040;2023-09-19T16:01:06;1.93;;;1.56;;
82922;SDS011;72787;51.272;6.040;2023-09-19T16:03:57;1.95;;;1.55;;
82922;SDS011;72787;51.272;6.040;2023-09-19T16:06:27;1.95;;;1.54;;
82922;SDS011;72787;51.272;6.040;2023-09-19T16:08:55;1.88;;;1.49;;
82922;SDS011;72787;51.272;6.040;2023-09-19T16:11:23;1.92;;;1.52;;
82922;SDS011;72787;51.272;6.040;2023-09-19T16:13:52;2.07;;;1.64;;
82922;SDS011;72787;51.272;6.040;2023-09-19T16:16:19;1.88;;;1.51;;
82922;SDS011;72787;51.272;6.040;2023-09-19T16:18:48;1.98;;;1.60;;